Terminal Aerodrome Forecast
Issued by NWS La Crosse, WI

Home | Current Version | Previous Version | Text Only | Print | Product List | Glossary On
Versions: 1 2 3 4 5 6 7 8 9 10 11 12 13 14 15 16 17 18 19 20 21 22 23 24 25 26 27 28 29 30 31 32 33 34
000
FTUS43 KARX 210333 AAA
TAFRST
TAF AMD
KRST 210333Z 2104/2124 26017KT P6SM SCT008 OVC015
     FM210500 27014KT P6SM SKC
     FM211100 29005KT 1/2SM FG VV003
     FM211500 20012KT P6SM FEW150=

USA.gov is the U.S. government's official web portal to all federal, state and local government web resources and services.